createdAt,value
2022-10-02T00:02:30.985Z,15.30
2022-10-02T00:05:06.580Z,15.20
2022-10-02T00:07:54.047Z,15.20
2022-10-02T00:10:34.454Z,15.10
2022-10-02T00:13:05.852Z,15.10
2022-10-02T00:15:36.656Z,15.10
2022-10-02T00:18:11.721Z,15.20
2022-10-02T00:21:00.540Z,15.20
2022-10-02T00:23:31.818Z,15.20
2022-10-02T00:26:05.412Z,15.20
2022-10-02T00:28:41.650Z,15.20
2022-10-02T00:31:31.140Z,15.10
2022-10-02T00:34:30.772Z,15.20
2022-10-02T00:37:02.749Z,15.10
2022-10-02T00:39:38.660Z,15.10
2022-10-02T00:42:23.458Z,15.00
2022-10-02T00:44:55.860Z,15.00
2022-10-02T00:47:51.668Z,14.90
2022-10-02T00:50:37.235Z,15.00
2022-10-02T00:53:15.949Z,15.00
2022-10-02T00:56:05.728Z,15.00
2022-10-02T00:58:56.030Z,15.10
2022-10-02T01:01:29.730Z,15.00
2022-10-02T01:03:57.648Z,15.00
2022-10-02T01:06:27.823Z,15.00
2022-10-02T01:08:55.512Z,15.00
2022-10-02T01:11:26.199Z,15.00
2022-10-02T01:13:53.266Z,14.90
2022-10-02T01:16:20.211Z,14.90
2022-10-02T01:18:48.090Z,14.90
2022-10-02T01:21:42.115Z,14.90
2022-10-02T01:24:36.952Z,14.80
2022-10-02T01:27:03.834Z,14.80
2022-10-02T01:29:30.595Z,14.80
2022-10-02T01:31:57.421Z,14.80
2022-10-02T01:34:24.253Z,14.80
2022-10-02T01:36:51.038Z,14.70
2022-10-02T01:39:18.318Z,14.70
2022-10-02T01:41:45.264Z,14.60
2022-10-02T01:44:13.851Z,14.60
2022-10-02T01:47:21.112Z,14.60
2022-10-02T01:50:12.317Z,14.50
2022-10-02T01:52:41.794Z,14.50
2022-10-02T01:55:19.752Z,14.50
2022-10-02T01:58:14.004Z,14.50
2022-10-02T02:00:55.719Z,14.50
2022-10-02T02:03:32.648Z,14.40
2022-10-02T02:06:07.813Z,14.40
2022-10-02T02:08:56.450Z,14.50
2022-10-02T02:11:25.366Z,14.50
2022-10-02T02:14:13.812Z,14.50
2022-10-02T02:16:44.694Z,14.40
2022-10-02T02:19:35.141Z,14.40
2022-10-02T02:22:07.872Z,14.40
2022-10-02T02:24:39.685Z,14.40
2022-10-02T02:27:10.240Z,14.30
2022-10-02T02:29:39.292Z,14.20
2022-10-02T02:32:09.902Z,14.20
2022-10-02T02:34:49.773Z,14.20
2022-10-02T02:37:20.444Z,14.20
2022-10-02T02:39:52.655Z,14.10
2022-10-02T02:42:26.277Z,14.10
2022-10-02T02:45:19.722Z,14.00
2022-10-02T02:47:51.328Z,14.10
2022-10-02T02:50:31.767Z,14.00
2022-10-02T02:53:13.587Z,14.00
2022-10-02T02:55:48.603Z,14.00
2022-10-02T02:58:20.703Z,14.00
2022-10-02T03:00:47.549Z,14.00
2022-10-02T03:03:14.895Z,14.00
2022-10-02T03:05:46.823Z,14.00
2022-10-02T03:08:26.916Z,14.10
2022-10-02T03:11:05.874Z,14.10
2022-10-02T03:13:54.129Z,14.10
2022-10-02T03:16:39.310Z,14.10
2022-10-02T03:19:14.925Z,14.10
2022-10-02T03:21:53.609Z,14.10
2022-10-02T03:24:48.746Z,14.10
2022-10-02T03:27:36.710Z,14.10
2022-10-02T03:30:08.572Z,14.10
2022-10-02T03:32:38.162Z,14.10
2022-10-02T03:35:09.204Z,14.10
2022-10-02T03:37:36.169Z,14.10
2022-10-02T03:40:05.422Z,14.10
2022-10-02T03:42:35.284Z,14.10
2022-10-02T03:45:02.186Z,14.10
2022-10-02T03:47:29.106Z,14.10
2022-10-02T03:49:55.812Z,14.10
2022-10-02T03:52:23.610Z,14.10
2022-10-02T03:54:56.134Z,14.10
2022-10-02T03:57:25.108Z,14.10
2022-10-02T04:00:06.240Z,14.00
2022-10-02T04:02:48.872Z,14.00
2022-10-02T04:05:34.027Z,13.90
2022-10-02T04:08:09.057Z,14.00
2022-10-02T04:10:50.670Z,13.90
2022-10-02T04:13:21.368Z,14.00
2022-10-02T04:16:03.582Z,14.00
2022-10-02T04:18:43.060Z,14.00
2022-10-02T04:21:34.322Z,14.00
2022-10-02T04:24:21.628Z,14.00
2022-10-02T04:27:02.072Z,14.00
2022-10-02T04:29:35.721Z,14.10
2022-10-02T04:32:16.027Z,14.10
2022-10-02T04:34:43.245Z,14.10
2022-10-02T04:37:31.962Z,14.10
2022-10-02T04:40:29.062Z,14.10
2022-10-02T04:43:40.596Z,14.10
2022-10-02T04:46:37.864Z,14.00
2022-10-02T04:49:27.053Z,13.90
2022-10-02T04:52:18.821Z,14.00
2022-10-02T04:55:01.850Z,14.00
2022-10-02T04:57:47.257Z,14.10
2022-10-02T05:00:18.130Z,14.10
2022-10-02T05:03:16.751Z,14.10
2022-10-02T05:06:04.268Z,14.10
2022-10-02T05:09:06.615Z,14.00
2022-10-02T05:12:21.734Z,14.00
2022-10-02T05:15:17.215Z,13.90
2022-10-02T05:18:04.188Z,13.80
2022-10-02T05:20:33.752Z,13.80
2022-10-02T05:23:03.511Z,13.80
2022-10-02T05:26:12.046Z,13.80
2022-10-02T05:28:49.789Z,13.80
2022-10-02T05:31:51.950Z,13.80
2022-10-02T05:34:45.105Z,13.80
2022-10-02T05:37:45.180Z,13.70
2022-10-02T05:40:25.198Z,13.80
2022-10-02T05:42:54.989Z,13.90
2022-10-02T05:45:31.088Z,14.00
2022-10-02T05:48:32.984Z,14.10
2022-10-02T05:51:07.993Z,14.10
2022-10-02T05:53:43.711Z,14.10
2022-10-02T05:56:12.212Z,14.20
2022-10-02T05:59:03.296Z,14.20
2022-10-02T06:01:38.441Z,14.20
2022-10-02T06:04:35.790Z,14.40
2022-10-02T06:07:13.497Z,14.40
2022-10-02T06:09:43.216Z,14.60
2022-10-02T06:12:26.732Z,14.60
2022-10-02T06:15:17.261Z,14.60
2022-10-02T06:17:49.799Z,14.60
2022-10-02T06:20:32.612Z,14.60
2022-10-02T06:23:06.110Z,14.70
2022-10-02T06:25:48.725Z,14.70
2022-10-02T06:28:27.777Z,14.70
2022-10-02T06:31:04.843Z,14.70
2022-10-02T06:33:33.446Z,14.90
2022-10-02T06:36:08.390Z,14.90
2022-10-02T06:39:05.722Z,14.90
2022-10-02T06:42:11.318Z,14.80
2022-10-02T06:44:56.994Z,14.80
2022-10-02T06:47:45.037Z,14.90
2022-10-02T06:50:19.345Z,14.90
2022-10-02T06:53:04.127Z,14.90
2022-10-02T06:55:44.460Z,14.90
2022-10-02T06:58:23.244Z,14.90
2022-10-02T07:01:02.760Z,15.00
2022-10-02T07:03:52.774Z,15.10
2022-10-02T07:06:28.504Z,15.00
2022-10-02T07:09:18.510Z,15.10
2022-10-02T07:12:18.606Z,15.20
2022-10-02T07:14:54.244Z,15.30
2022-10-02T07:17:36.106Z,15.40
2022-10-02T07:20:21.491Z,15.50
2022-10-02T07:23:09.921Z,15.50
2022-10-02T07:25:47.657Z,15.50
2022-10-02T07:28:38.359Z,15.50
2022-10-02T07:31:37.237Z,15.40
2022-10-02T07:34:15.708Z,15.40
2022-10-02T07:37:25.686Z,15.30
2022-10-02T07:40:10.222Z,15.30
2022-10-02T07:42:52.172Z,15.30
2022-10-02T07:45:18.867Z,15.20
2022-10-02T07:48:03.482Z,15.20
2022-10-02T07:50:51.087Z,15.10
2022-10-02T07:53:49.249Z,15.10
2022-10-02T07:56:20.784Z,15.10
2022-10-02T07:58:52.063Z,15.00
2022-10-02T08:01:26.949Z,15.00
2022-10-02T08:04:20.073Z,14.90
2022-10-02T08:06:48.079Z,14.80
2022-10-02T08:09:21.328Z,14.90
2022-10-02T08:11:58.977Z,14.90
2022-10-02T08:14:40.588Z,14.80
2022-10-02T08:17:27.618Z,14.90
2022-10-02T08:19:59.506Z,14.90
2022-10-02T08:22:55.496Z,14.80
2022-10-02T08:25:42.736Z,14.90
2022-10-02T08:28:22.472Z,15.00
2022-10-02T08:30:49.329Z,15.00
2022-10-02T08:33:19.458Z,15.20
2022-10-02T08:36:24.326Z,15.40
2022-10-02T08:39:00.844Z,15.50
2022-10-02T08:41:54.222Z,15.70
2022-10-02T08:44:36.561Z,15.90
2022-10-02T08:47:03.375Z,16.10
2022-10-02T08:49:55.136Z,16.30
2022-10-02T08:53:00.275Z,16.40
2022-10-02T08:55:44.068Z,16.30
2022-10-02T08:58:31.622Z,16.30
2022-10-02T09:01:10.085Z,16.30
2022-10-02T09:04:10.645Z,16.20
2022-10-02T09:06:57.051Z,16.00
2022-10-02T09:09:53.922Z,16.00
2022-10-02T09:12:32.519Z,15.90
2022-10-02T09:15:23.868Z,15.80
2022-10-02T09:18:06.172Z,15.80
2022-10-02T09:20:53.841Z,15.80
2022-10-02T09:23:35.577Z,15.70
2022-10-02T09:26:17.158Z,15.80
2022-10-02T09:29:28.642Z,15.70
2022-10-02T09:32:46.614Z,15.70
2022-10-02T09:35:34.245Z,15.60
2022-10-02T09:38:29.636Z,15.80
2022-10-02T09:41:41.201Z,15.90
2022-10-02T09:44:46.148Z,16.10
2022-10-02T09:47:49.970Z,16.40
2022-10-02T09:50:25.970Z,16.70
2022-10-02T09:53:11.544Z,16.80
2022-10-02T09:56:03.212Z,16.90
2022-10-02T09:59:05.003Z,16.80
2022-10-02T10:02:00.992Z,16.70
2022-10-02T10:05:04.653Z,16.60
2022-10-02T10:08:12.629Z,16.40
2022-10-02T10:11:12.388Z,16.60
2022-10-02T10:14:12.609Z,17.00
2022-10-02T10:17:19.338Z,17.10
2022-10-02T10:20:08.923Z,17.30
2022-10-02T10:23:12.528Z,17.20
2022-10-02T10:26:04.666Z,17.20
2022-10-02T10:28:55.679Z,17.20
2022-10-02T10:31:43.278Z,17.20
2022-10-02T10:34:47.493Z,17.20
2022-10-02T10:37:51.871Z,17.10
2022-10-02T10:40:57.457Z,17.20
2022-10-02T10:43:52.955Z,17.20
2022-10-02T10:46:36.579Z,17.00
2022-10-02T10:49:12.248Z,16.80
2022-10-02T10:51:41.842Z,16.60
2022-10-02T10:54:40.651Z,16.30
2022-10-02T10:57:23.003Z,15.90
2022-10-02T11:00:16.043Z,15.70
2022-10-02T11:03:13.761Z,15.30
2022-10-02T11:06:14.711Z,14.90
2022-10-02T11:09:06.365Z,14.70
2022-10-02T11:11:40.844Z,14.50
2022-10-02T11:14:36.963Z,14.40
2022-10-02T11:17:22.316Z,14.20
2022-10-02T11:20:27.368Z,14.10
2022-10-02T11:23:00.121Z,14.00
2022-10-02T11:25:53.873Z,13.90
2022-10-02T11:28:45.320Z,13.80
2022-10-02T11:31:53.740Z,13.80
2022-10-02T11:34:44.780Z,13.70
2022-10-02T11:37:31.171Z,13.70
2022-10-02T11:40:15.751Z,13.60
2022-10-02T11:43:16.844Z,13.60
2022-10-02T11:46:36.806Z,13.60
2022-10-02T11:49:37.673Z,13.60
2022-10-02T11:52:31.033Z,13.50
2022-10-02T11:54:58.241Z,13.50
2022-10-02T11:57:35.553Z,13.50
2022-10-02T12:00:16.162Z,13.40
2022-10-02T12:03:24.349Z,13.40
2022-10-02T12:05:53.598Z,13.40
2022-10-02T12:08:42.032Z,13.30
2022-10-02T12:11:46.500Z,13.30
2022-10-02T12:14:17.753Z,13.20
2022-10-02T12:17:06.393Z,13.20
2022-10-02T12:19:36.677Z,13.10
2022-10-02T12:22:35.430Z,13.00
2022-10-02T12:25:33.278Z,13.00
2022-10-02T12:28:24.193Z,13.10
2022-10-02T12:31:33.047Z,13.10
2022-10-02T12:34:38.382Z,13.10
2022-10-02T12:37:29.866Z,13.20
2022-10-02T12:40:17.991Z,13.00
2022-10-02T12:43:11.666Z,12.90
2022-10-02T12:46:01.909Z,13.00
2022-10-02T12:49:16.165Z,13.00
2022-10-02T12:52:15.858Z,12.90
2022-10-02T12:55:01.590Z,13.00
2022-10-02T12:58:06.048Z,13.00
2022-10-02T13:01:00.756Z,13.10
2022-10-02T13:04:00.883Z,13.10
2022-10-02T13:07:26.447Z,13.00
2022-10-02T13:10:31.047Z,13.00
2022-10-02T13:13:32.014Z,13.00
2022-10-02T13:16:12.910Z,13.00
2022-10-02T13:18:50.510Z,13.00
2022-10-02T13:21:46.902Z,13.10
2022-10-02T13:24:40.340Z,13.00
2022-10-02T13:27:31.702Z,12.90
2022-10-02T13:30:13.987Z,12.90
2022-10-02T13:32:56.015Z,12.80
2022-10-02T13:36:01.999Z,12.80
2022-10-02T13:39:55.883Z,12.70
2022-10-02T13:43:37.822Z,12.60
2022-10-02T13:46:33.874Z,12.40
2022-10-02T13:49:00.617Z,12.50
2022-10-02T13:51:54.146Z,12.40
2022-10-02T13:54:48.226Z,12.40
2022-10-02T13:57:40.903Z,12.40
2022-10-02T14:00:51.044Z,12.40
2022-10-02T14:03:32.856Z,12.30
2022-10-02T14:06:29.244Z,12.20
2022-10-02T14:09:31.960Z,12.00
2022-10-02T14:12:08.953Z,11.90
2022-10-02T14:15:10.297Z,11.90
2022-10-02T14:17:55.761Z,11.90
2022-10-02T14:20:44.233Z,11.80
2022-10-02T14:23:13.773Z,11.70
2022-10-02T14:26:07.970Z,11.70
2022-10-02T14:29:08.725Z,11.60
2022-10-02T14:31:51.130Z,11.50
2022-10-02T14:34:36.571Z,11.40
2022-10-02T14:37:25.977Z,11.40
2022-10-02T14:39:55.568Z,11.30
2022-10-02T14:42:37.610Z,11.20
2022-10-02T14:45:22.383Z,11.20
2022-10-02T14:48:05.148Z,11.20
2022-10-02T14:50:40.611Z,11.30
2022-10-02T14:53:31.996Z,11.20
2022-10-02T14:56:27.822Z,11.10
2022-10-02T14:59:25.329Z,10.90
2022-10-02T15:02:10.038Z,10.90
2022-10-02T15:05:07.839Z,10.80
2022-10-02T15:07:38.721Z,10.80
2022-10-02T15:10:07.348Z,10.70
2022-10-02T15:12:37.078Z,10.70
2022-10-02T15:15:31.547Z,10.70
2022-10-02T15:18:10.215Z,10.70
2022-10-02T15:21:00.693Z,10.60
2022-10-02T15:23:33.289Z,10.70
2022-10-02T15:26:24.982Z,10.70
2022-10-02T15:28:57.709Z,10.60
2022-10-02T15:32:10.769Z,10.60
2022-10-02T15:34:59.473Z,10.50
2022-10-02T15:37:35.633Z,10.50
2022-10-02T15:40:08.853Z,10.60
2022-10-02T15:42:57.540Z,10.70
2022-10-02T15:45:52.826Z,10.60
2022-10-02T15:48:44.826Z,10.60
2022-10-02T15:51:38.544Z,10.60
2022-10-02T15:54:16.788Z,10.70
2022-10-02T15:57:16.905Z,10.50
2022-10-02T16:00:12.474Z,10.50
2022-10-02T16:03:19.115Z,10.40
2022-10-02T16:05:53.553Z,10.40
2022-10-02T16:08:41.332Z,10.30
2022-10-02T16:11:41.933Z,10.30
2022-10-02T16:14:27.495Z,10.30
2022-10-02T16:17:14.570Z,10.30
2022-10-02T16:19:56.124Z,10.40
2022-10-02T16:22:41.031Z,10.30
2022-10-02T16:25:22.783Z,10.30
2022-10-02T16:28:11.022Z,10.30
2022-10-02T16:31:12.997Z,10.30
2022-10-02T16:33:51.091Z,10.20
2022-10-02T16:36:30.005Z,10.20
2022-10-02T16:39:26.298Z,10.20
2022-10-02T16:42:21.099Z,10.20
2022-10-02T16:45:23.865Z,10.20
2022-10-02T16:48:07.745Z,10.10
2022-10-02T16:51:08.642Z,10.10
2022-10-02T16:53:47.314Z,10.20
2022-10-02T16:56:20.939Z,10.20
2022-10-02T16:59:02.542Z,10.20
2022-10-02T17:01:35.655Z,10.20
2022-10-02T17:04:28.692Z,10.30
2022-10-02T17:07:30.894Z,10.30
2022-10-02T17:10:18.191Z,10.20
2022-10-02T17:12:48.705Z,10.30
2022-10-02T17:15:25.476Z,10.20
2022-10-02T17:18:07.435Z,10.10
2022-10-02T17:20:42.750Z,10.10
2022-10-02T17:23:09.444Z,9.90
2022-10-02T17:26:22.510Z,10.00
2022-10-02T17:28:59.088Z,10.00
2022-10-02T17:31:51.978Z,10.00
2022-10-02T17:34:30.004Z,9.90
2022-10-02T17:37:09.334Z,9.80
2022-10-02T17:39:46.396Z,9.90
2022-10-02T17:42:30.339Z,9.90
2022-10-02T17:45:06.525Z,9.90
2022-10-02T17:47:48.638Z,9.70
2022-10-02T17:50:23.982Z,9.80
2022-10-02T17:53:37.996Z,9.80
2022-10-02T17:56:38.366Z,9.70
2022-10-02T17:59:30.570Z,9.60
2022-10-02T18:02:29.141Z,9.60
2022-10-02T18:05:14.619Z,9.60
2022-10-02T18:08:09.374Z,9.50
2022-10-02T18:11:19.400Z,9.60
2022-10-02T18:14:07.132Z,9.50
2022-10-02T18:17:06.401Z,9.40
2022-10-02T18:19:42.385Z,9.40
2022-10-02T18:22:38.086Z,9.40
2022-10-02T18:25:12.434Z,9.40
2022-10-02T18:28:16.717Z,9.30
2022-10-02T18:30:49.307Z,9.20
2022-10-02T18:34:07.301Z,9.20
2022-10-02T18:36:52.024Z,9.20
2022-10-02T18:39:33.159Z,9.30
2022-10-02T18:42:19.738Z,9.20
2022-10-02T18:44:59.515Z,9.10
2022-10-02T18:47:51.250Z,9.10
2022-10-02T18:50:45.572Z,9.20
2022-10-02T18:53:34.726Z,9.20
2022-10-02T18:56:08.634Z,9.10
2022-10-02T18:58:50.487Z,9.20
2022-10-02T19:01:20.106Z,9.20
2022-10-02T19:04:04.772Z,9.20
2022-10-02T19:06:34.887Z,9.20
2022-10-02T19:09:07.753Z,9.20
2022-10-02T19:11:43.979Z,9.10
2022-10-02T19:14:41.519Z,9.10
2022-10-02T19:17:30.813Z,9.10
2022-10-02T19:19:58.706Z,9.20
2022-10-02T19:22:36.255Z,9.10
2022-10-02T19:25:16.195Z,9.10
2022-10-02T19:27:49.446Z,9.00
2022-10-02T19:30:33.282Z,9.10
2022-10-02T19:33:10.952Z,9.00
2022-10-02T19:35:44.049Z,9.00
2022-10-02T19:38:21.353Z,8.90
2022-10-02T19:40:56.490Z,9.00
2022-10-02T19:43:31.032Z,9.00
2022-10-02T19:46:04.337Z,9.10
2022-10-02T19:48:32.367Z,9.10
2022-10-02T19:51:02.191Z,9.10
2022-10-02T19:53:55.898Z,9.00
2022-10-02T19:56:35.124Z,8.90
2022-10-02T19:59:10.997Z,8.90
2022-10-02T20:01:49.771Z,8.90
2022-10-02T20:04:25.806Z,9.00
2022-10-02T20:06:57.075Z,9.00
2022-10-02T20:09:39.271Z,8.90
2022-10-02T20:12:11.083Z,9.00
2022-10-02T20:14:57.187Z,9.00
2022-10-02T20:17:24.195Z,9.00
2022-10-02T20:19:57.860Z,8.90
2022-10-02T20:22:52.472Z,8.80
2022-10-02T20:25:29.317Z,8.90
2022-10-02T20:28:10.341Z,9.00
2022-10-02T20:31:03.613Z,9.00
2022-10-02T20:33:40.315Z,9.00
2022-10-02T20:36:14.445Z,9.00
2022-10-02T20:38:50.637Z,9.00
2022-10-02T20:41:29.101Z,9.00
2022-10-02T20:44:02.374Z,9.00
2022-10-02T20:47:06.163Z,9.00
2022-10-02T20:49:52.784Z,9.10
2022-10-02T20:52:40.491Z,9.10
2022-10-02T20:55:18.004Z,9.00
2022-10-02T20:58:00.823Z,9.00
2022-10-02T21:00:47.496Z,8.90
2022-10-02T21:03:29.795Z,9.00
2022-10-02T21:06:42.151Z,9.00
2022-10-02T21:09:30.744Z,9.00
2022-10-02T21:12:12.796Z,9.00
2022-10-02T21:14:39.587Z,8.80
2022-10-02T21:17:24.397Z,8.90
2022-10-02T21:20:09.753Z,8.90
2022-10-02T21:22:54.957Z,8.90
2022-10-02T21:25:40.585Z,8.90
2022-10-02T21:28:19.651Z,8.80
2022-10-02T21:31:12.968Z,8.80
2022-10-02T21:33:42.090Z,8.70
2022-10-02T21:36:20.272Z,8.80
2022-10-02T21:39:39.010Z,8.80
2022-10-02T21:42:08.662Z,8.90
2022-10-02T21:45:03.499Z,8.90
2022-10-02T21:47:58.081Z,9.00
2022-10-02T21:51:05.015Z,9.00
2022-10-02T21:53:31.784Z,9.00
2022-10-02T21:56:13.862Z,9.00
2022-10-02T21:59:25.475Z,9.00
2022-10-02T22:02:29.609Z,9.00
2022-10-02T22:05:23.193Z,9.00
2022-10-02T22:08:02.382Z,9.10
2022-10-02T22:10:44.085Z,9.00
2022-10-02T22:13:33.055Z,8.90
2022-10-02T22:16:11.837Z,8.90
2022-10-02T22:19:20.805Z,9.00
2022-10-02T22:21:59.270Z,9.00
2022-10-02T22:24:53.675Z,9.00
2022-10-02T22:28:04.983Z,9.10
2022-10-02T22:30:42.891Z,9.10
2022-10-02T22:33:20.113Z,9.00
2022-10-02T22:36:00.486Z,9.10
2022-10-02T22:38:42.131Z,9.00
2022-10-02T22:41:43.574Z,9.00
2022-10-02T22:44:39.240Z,9.00
2022-10-02T22:47:32.861Z,8.90
2022-10-02T22:50:44.707Z,8.90
2022-10-02T22:53:20.211Z,9.00
2022-10-02T22:55:57.635Z,9.00
2022-10-02T22:58:41.909Z,9.00
2022-10-02T23:01:16.799Z,9.00
2022-10-02T23:03:46.582Z,9.00
2022-10-02T23:06:31.638Z,9.00
2022-10-02T23:09:01.893Z,9.00
2022-10-02T23:11:44.191Z,8.90
2022-10-02T23:14:23.927Z,8.80
2022-10-02T23:17:06.262Z,8.90
2022-10-02T23:19:43.977Z,8.90
2022-10-02T23:22:43.841Z,8.90
2022-10-02T23:25:14.298Z,8.80
2022-10-02T23:27:46.958Z,8.80
2022-10-02T23:30:19.805Z,8.80
2022-10-02T23:33:09.808Z,8.80
2022-10-02T23:36:04.306Z,8.90
2022-10-02T23:38:49.538Z,8.80
2022-10-02T23:41:46.563Z,8.90
2022-10-02T23:44:17.278Z,8.90
2022-10-02T23:46:50.264Z,8.90
2022-10-02T23:49:19.511Z,8.80
2022-10-02T23:51:46.183Z,8.80
2022-10-02T23:54:24.152Z,8.80
2022-10-02T23:56:58.612Z,8.70
2022-10-02T23:59:47.017Z,8.80
